Meath Environmental Platform

Observations for Trim Market St

Time AQI Temp °C Hum % Pres Pa CO μg/m³ H₂S μg/m³ NO μg/m³ NO₂ μg/m³ O₃ μg/m³ SO₂ μg/m³ PM1 μg/m³ PM2.5 μg/m³ PM10 μg/m³
Sunday 16 August 2026
10:13 2 22.1 57 57,807 0.16 0 2.41 7.07 50.02 0 0 2.68 3.29
10:08 2 21.4 58 57,797 0.11 0 1.43 4.22 32.75 0 0 3.13 4.03
10:04 2 21.1 59 57,773 0.09 0 1.84 4.69 40.98 0 1.43 4.6 6.14
10:03 2 21.1 59 57,765 0.1 0 1.86 3.95 30.02 0 0.71 3.08 4.06
10:02 2 21 59 57,752 0.11 0 1.48 5.33 37.07 0 0.71 3.07 4.07
10:01 2 20.9 59 57,744 0.1 0 1.48 6.72 45.65 0 0.71 2.56 3.38
10:00 2 20.8 59 57,743 0.1 0 1.48 5.64 44.82 0 0.71 4.06 5.46
09:59 2 20.8 59 57,746 0.1 0 1.47 6.09 43.16 0 1.43 3.06 4.08
09:58 2 20.7 59 57,749 0.16 0 1.34 5.64 47.66 0 0.71 3.56 4.77
09:57 2 20.7 59 57,753 0.44 0 1.41 4.71 41.14 0 2.14 4.56 7.53
09:56 2 20.6 60 57,755 0.08 0 1.27 4.95 40.41 0 1.43 3.55 4.77
09:55 2 20.6 60 57,755 0.07 0 1.28 3.63 36.47 0 0.71 2.54 3.4
09:54 2 20.5 60 57,752 0.12 0 1.3 5.2 42.25 0 1.43 3.54 4.78
09:53 2 20.5 60 57,750 0.09 0 1.25 4.02 37.99 0 0.71 3.03 4.09
09:52 2 20.5 60 57,745 0.09 0 1.37 2.52 33.41 0 0.71 2.52 3.41
09:51 2 20.5 60 57,735 0.09 0 1.41 3.6 41.96 0 2.14 4.53 6.16
09:49 2 20.4 60 57,724 0.14 0 1.66 2.59 29.31 0 0.71 2.51 4.79
09:48 2 20.4 60 57,717 0.13 0 1.67 3.84 31.62 0 0.71 3.5 4.8
09:47 2 20.4 61 57,714 0.14 0 1.61 2.81 30.63 0 2.14 3.99 5.48
09:46 2 20.4 61 57,710 0.17 0 1.96 3.44 30.63 0 0.71 2.99 4.8